Aeroporto :
LOGIN :

Iscrizione | Disclaimer

   EN    FR    IT 

 










Sommario :    VFR   VFR Marginale   IFR   IFR Intensivo   IFR Molto Intensivo
Visibilità : 
Base nubi : 
>= 8 km
>= 3000ft
5 / 8 km
1000 / 3000 ft
1500m / 5 km
500 / 1000 ft
800 / 1500m
200 / 500 ft
< 800m
< 200 ft
Simboli :   Temporali  Nebbia  Neve Forte  Precipitazioni Forti  Vento > 20 kt
SIGMETs :   Varie  Temporali  Ghiacco  Turbolenza  Onda orograficha  Ceneri Vulcaniche






- Altitudine del aeroporto : 218 ft
- Codice IATA : LBG


LFPB - Paris / Le Bourget

ULTIMO METAR :
  • 221230Z AUTO 28009KT 230V330 9999 FEW035 BKN044 BKN052 13/05 Q1023 NOSIG

METARs OBSOLETI :
  • 221200Z AUTO 27009KT 230V300 CAVOK 13/05 Q1023 NOSIG
  • 221130Z AUTO 25008KT 210V300 CAVOK 13/07 Q1023 NOSIG
  • 221100Z AUTO 26008KT CAVOK 12/06 Q1023 NOSIG
  • 221030Z AUTO 22007KT 190V250 CAVOK 12/07 Q1023 NOSIG
  • 221000Z AUTO 26006KT CAVOK 10/06 Q1023 NOSIG

TAF TAF LFPB
Valido dal 22 a 12 ore il 23 a 12 ore UTC


221100Z 2212/2312 26008KT CAVOK
PROB40
TEMPO 2304/2311 3000 BR
PROB30
TEMPO 2306/2309 0600 BCFG BKN001
PROB30
TEMPO 2310/2312 BKN004
ATIS : +33 1 48 62 43 92



MetMap, La meteo Aeronautica in un colpo d'occhio ! - Copyright ORBIFLY Dicembre 2007 - Disclaimer

ORBIFLY MET'MAP TEAM :

Programmazione e sviluppo : Alexandra Zaïnal
Concezione : Baudouin d'Aumeries
Aiuto per la programmazione : Marc-Olivier Méhu
Supporto tecnico e logistico : Manuel Goepfert
Aiuto per la traduzione : Arnaldo La Scala

Contatto : metmap@orbifly.com




FONTI E CREDITI :

   NOAA